sensor_id;sensor_type;location;lat;lon;timestamp;temperature;humidity
12370;DHT22;6249;52.128;9.986;2023-05-14T00:00:12;12.20;99.90
12370;DHT22;6249;52.128;9.986;2023-05-14T00:03:33;12.20;99.90
12370;DHT22;6249;52.128;9.986;2023-05-14T00:06:53;12.20;99.90
12370;DHT22;6249;52.128;9.986;2023-05-14T00:10:14;12.10;99.90
12370;DHT22;6249;52.128;9.986;2023-05-14T00:13:35;12.00;99.90
12370;DHT22;6249;52.128;9.986;2023-05-14T00:16:56;12.00;99.90
12370;DHT22;6249;52.128;9.986;2023-05-14T00:20:17;11.80;99.90
12370;DHT22;6249;52.128;9.986;2023-05-14T00:23:38;11.80;99.90
12370;DHT22;6249;52.128;9.986;2023-05-14T00:26:59;11.80;99.90
12370;DHT22;6249;52.128;9.986;2023-05-14T00:30:20;11.70;99.90
12370;DHT22;6249;52.128;9.986;2023-05-14T00:33:43;11.60;99.90
12370;DHT22;6249;52.128;9.986;2023-05-14T00:37:03;11.60;99.90
12370;DHT22;6249;52.128;9.986;2023-05-14T00:40:25;11.50;99.90
12370;DHT22;6249;52.128;9.986;2023-05-14T00:43:46;11.50;99.90
12370;DHT22;6249;52.128;9.986;2023-05-14T00:47:09;11.50;99.90
12370;DHT22;6249;52.128;9.986;2023-05-14T00:50:30;11.30;99.90
12370;DHT22;6249;52.128;9.986;2023-05-14T00:53:53;11.20;99.90
12370;DHT22;6249;52.128;9.986;2023-05-14T00:57:14;11.20;99.90
12370;DHT22;6249;52.128;9.986;2023-05-14T01:00:38;11.20;99.90
12370;DHT22;6249;52.128;9.986;2023-05-14T01:03:59;11.20;99.90
12370;DHT22;6249;52.128;9.986;2023-05-14T01:07:41;11.20;99.90
12370;DHT22;6249;52.128;9.986;2023-05-14T01:11:18;11.10;99.90
12370;DHT22;6249;52.128;9.986;2023-05-14T01:18:13;11.00;99.90
12370;DHT22;6249;52.128;9.986;2023-05-14T01:21:41;10.90;99.90
12370;DHT22;6249;52.128;9.986;2023-05-14T01:25:03;10.90;99.90
12370;DHT22;6249;52.128;9.986;2023-05-14T01:28:31;10.80;99.90
12370;DHT22;6249;52.128;9.986;2023-05-14T01:31:54;10.70;99.90
12370;DHT22;6249;52.128;9.986;2023-05-14T01:35:17;10.70;99.90
12370;DHT22;6249;52.128;9.986;2023-05-14T01:38:40;10.60;99.90
12370;DHT22;6249;52.128;9.986;2023-05-14T01:42:05;10.70;99.90
12370;DHT22;6249;52.128;9.986;2023-05-14T01:45:27;10.70;99.90
12370;DHT22;6249;52.128;9.986;2023-05-14T01:48:47;10.70;99.90
12370;DHT22;6249;52.128;9.986;2023-05-14T01:52:09;10.70;99.90
12370;DHT22;6249;52.128;9.986;2023-05-14T01:55:30;10.70;99.90
12370;DHT22;6249;52.128;9.986;2023-05-14T01:58:50;10.60;99.90
12370;DHT22;6249;52.128;9.986;2023-05-14T02:02:11;10.50;99.90
12370;DHT22;6249;52.128;9.986;2023-05-14T02:05:32;10.50;99.90
12370;DHT22;6249;52.128;9.986;2023-05-14T02:08:53;10.40;99.90
12370;DHT22;6249;52.128;9.986;2023-05-14T02:12:18;10.40;99.90
12370;DHT22;6249;52.128;9.986;2023-05-14T02:15:41;10.30;99.90
12370;DHT22;6249;52.128;9.986;2023-05-14T02:19:01;10.40;99.90
12370;DHT22;6249;52.128;9.986;2023-05-14T02:22:22;10.30;99.90
12370;DHT22;6249;52.128;9.986;2023-05-14T02:25:43;10.20;99.90
12370;DHT22;6249;52.128;9.986;2023-05-14T02:29:04;11.10;99.90
12370;DHT22;6249;52.128;9.986;2023-05-14T02:32:24;10.00;99.90
12370;DHT22;6249;52.128;9.986;2023-05-14T02:35:47;10.10;99.90
12370;DHT22;6249;52.128;9.986;2023-05-14T02:39:08;10.00;99.90
12370;DHT22;6249;52.128;9.986;2023-05-14T02:42:29;9.90;99.90
12370;DHT22;6249;52.128;9.986;2023-05-14T02:45:49;9.90;99.90
12370;DHT22;6249;52.128;9.986;2023-05-14T02:49:10;9.90;99.90
12370;DHT22;6249;52.128;9.986;2023-05-14T02:52:30;9.90;99.90
12370;DHT22;6249;52.128;9.986;2023-05-14T02:55:51;9.90;99.90
12370;DHT22;6249;52.128;9.986;2023-05-14T02:59:12;9.90;99.90
12370;DHT22;6249;52.128;9.986;2023-05-14T03:02:32;9.90;99.90
12370;DHT22;6249;52.128;9.986;2023-05-14T03:05:57;9.80;99.90
12370;DHT22;6249;52.128;9.986;2023-05-14T03:09:18;9.80;99.90
12370;DHT22;6249;52.128;9.986;2023-05-14T03:12:41;9.80;99.90
12370;DHT22;6249;52.128;9.986;2023-05-14T03:16:01;9.60;99.90
12370;DHT22;6249;52.128;9.986;2023-05-14T03:19:22;9.60;99.90
12370;DHT22;6249;52.128;9.986;2023-05-14T03:22:42;9.50;99.90
12370;DHT22;6249;52.128;9.986;2023-05-14T03:26:05;9.40;99.90
12370;DHT22;6249;52.128;9.986;2023-05-14T03:29:28;9.40;99.90
12370;DHT22;6249;52.128;9.986;2023-05-14T03:32:51;9.40;99.90
12370;DHT22;6249;52.128;9.986;2023-05-14T03:36:14;9.30;99.90
12370;DHT22;6249;52.128;9.986;2023-05-14T03:39:35;9.30;99.90
12370;DHT22;6249;52.128;9.986;2023-05-14T03:42:55;9.40;99.90
12370;DHT22;6249;52.128;9.986;2023-05-14T03:46:16;9.40;99.90
12370;DHT22;6249;52.128;9.986;2023-05-14T03:49:39;9.30;99.90
12370;DHT22;6249;52.128;9.986;2023-05-14T03:53:00;9.40;99.90
12370;DHT22;6249;52.128;9.986;2023-05-14T03:56:21;9.40;99.90
12370;DHT22;6249;52.128;9.986;2023-05-14T03:59:44;9.40;99.90
12370;DHT22;6249;52.128;9.986;2023-05-14T04:03:09;9.40;99.90
12370;DHT22;6249;52.128;9.986;2023-05-14T04:06:30;9.30;99.90
12370;DHT22;6249;52.128;9.986;2023-05-14T04:09:53;9.30;99.90
12370;DHT22;6249;52.128;9.986;2023-05-14T04:13:16;9.30;99.90
12370;DHT22;6249;52.128;9.986;2023-05-14T04:16:39;9.40;99.90
12370;DHT22;6249;52.128;9.986;2023-05-14T04:19:59;9.40;99.90
12370;DHT22;6249;52.128;9.986;2023-05-14T04:23:22;9.30;99.90
12370;DHT22;6249;52.128;9.986;2023-05-14T04:26:45;9.30;99.90
12370;DHT22;6249;52.128;9.986;2023-05-14T04:30:06;9.30;99.90
12370;DHT22;6249;52.128;9.986;2023-05-14T04:33:27;9.40;99.90
12370;DHT22;6249;52.128;9.986;2023-05-14T04:36:50;9.40;99.90
12370;DHT22;6249;52.128;9.986;2023-05-14T04:40:11;9.40;99.90
12370;DHT22;6249;52.128;9.986;2023-05-14T04:43:32;9.50;99.90
12370;DHT22;6249;52.128;9.986;2023-05-14T04:46:55;9.50;99.90
12370;DHT22;6249;52.128;9.986;2023-05-14T04:50:18;9.60;99.90
12370;DHT22;6249;52.128;9.986;2023-05-14T04:53:38;9.50;99.90
12370;DHT22;6249;52.128;9.986;2023-05-14T04:57:02;9.60;99.90
12370;DHT22;6249;52.128;9.986;2023-05-14T05:00:22;9.70;99.90
12370;DHT22;6249;52.128;9.986;2023-05-14T05:03:45;9.70;99.90
12370;DHT22;6249;52.128;9.986;2023-05-14T05:07:05;9.70;99.90
12370;DHT22;6249;52.128;9.986;2023-05-14T05:10:28;9.70;99.90
12370;DHT22;6249;52.128;9.986;2023-05-14T05:13:49;9.70;99.90
12370;DHT22;6249;52.128;9.986;2023-05-14T05:17:10;9.80;99.90
12370;DHT22;6249;52.128;9.986;2023-05-14T05:20:30;9.80;99.90
12370;DHT22;6249;52.128;9.986;2023-05-14T05:23:51;9.90;99.90
12370;DHT22;6249;52.128;9.986;2023-05-14T05:27:14;10.00;99.90
12370;DHT22;6249;52.128;9.986;2023-05-14T05:30:35;10.20;99.90
12370;DHT22;6249;52.128;9.986;2023-05-14T05:33:58;10.30;99.90
12370;DHT22;6249;52.128;9.986;2023-05-14T05:37:24;10.50;99.90
12370;DHT22;6249;52.128;9.986;2023-05-14T05:40:45;10.60;99.90
12370;DHT22;6249;52.128;9.986;2023-05-14T05:44:10;10.70;99.90
12370;DHT22;6249;52.128;9.986;2023-05-14T05:47:31;10.80;99.90
12370;DHT22;6249;52.128;9.986;2023-05-14T05:50:56;10.90;99.90
12370;DHT22;6249;52.128;9.986;2023-05-14T05:54:17;11.10;99.90
12370;DHT22;6249;52.128;9.986;2023-05-14T05:57:37;11.40;99.90
12370;DHT22;6249;52.128;9.986;2023-05-14T06:00:58;11.50;99.90
12370;DHT22;6249;52.128;9.986;2023-05-14T06:04:19;11.80;99.90
12370;DHT22;6249;52.128;9.986;2023-05-14T06:07:39;12.00;99.90
12370;DHT22;6249;52.128;9.986;2023-05-14T06:11:00;12.00;99.90
12370;DHT22;6249;52.128;9.986;2023-05-14T06:14:23;12.20;99.90
12370;DHT22;6249;52.128;9.986;2023-05-14T06:17:43;12.20;99.90
12370;DHT22;6249;52.128;9.986;2023-05-14T06:21:06;12.30;99.90
12370;DHT22;6249;52.128;9.986;2023-05-14T06:24:27;12.40;99.90
12370;DHT22;6249;52.128;9.986;2023-05-14T06:27:47;12.50;99.90
12370;DHT22;6249;52.128;9.986;2023-05-14T06:31:08;13.40;99.90
12370;DHT22;6249;52.128;9.986;2023-05-14T06:34:31;12.70;99.90
12370;DHT22;6249;52.128;9.986;2023-05-14T06:37:51;12.70;99.90
12370;DHT22;6249;52.128;9.986;2023-05-14T06:41:12;12.80;99.90
12370;DHT22;6249;52.128;9.986;2023-05-14T06:44:32;13.00;99.90
12370;DHT22;6249;52.128;9.986;2023-05-14T06:47:56;13.20;99.90
12370;DHT22;6249;52.128;9.986;2023-05-14T06:51:17;13.30;99.90
12370;DHT22;6249;52.128;9.986;2023-05-14T06:54:37;13.40;99.90
12370;DHT22;6249;52.128;9.986;2023-05-14T06:58:00;13.40;99.90
12370;DHT22;6249;52.128;9.986;2023-05-14T07:01:21;13.40;99.90
12370;DHT22;6249;52.128;9.986;2023-05-14T07:04:44;13.40;99.90
12370;DHT22;6249;52.128;9.986;2023-05-14T07:08:04;13.50;99.90
12370;DHT22;6249;52.128;9.986;2023-05-14T07:11:27;13.50;99.90
12370;DHT22;6249;52.128;9.986;2023-05-14T07:14:48;13.80;99.90
12370;DHT22;6249;52.128;9.986;2023-05-14T07:18:09;13.70;99.90
12370;DHT22;6249;52.128;9.986;2023-05-14T07:21:30;13.90;99.90
12370;DHT22;6249;52.128;9.986;2023-05-14T07:24:51;14.00;99.90
12370;DHT22;6249;52.128;9.986;2023-05-14T07:28:12;14.20;99.90
12370;DHT22;6249;52.128;9.986;2023-05-14T07:31:35;14.30;99.90
12370;DHT22;6249;52.128;9.986;2023-05-14T07:34:55;14.40;99.90
12370;DHT22;6249;52.128;9.986;2023-05-14T07:38:19;14.40;99.90
12370;DHT22;6249;52.128;9.986;2023-05-14T07:41:39;14.50;99.90
12370;DHT22;6249;52.128;9.986;2023-05-14T07:45:05;14.60;99.90
12370;DHT22;6249;52.128;9.986;2023-05-14T07:48:26;14.60;99.90
12370;DHT22;6249;52.128;9.986;2023-05-14T07:51:47;14.80;99.90
12370;DHT22;6249;52.128;9.986;2023-05-14T07:55:07;14.90;99.90
12370;DHT22;6249;52.128;9.986;2023-05-14T07:58:28;15.10;99.90
12370;DHT22;6249;52.128;9.986;2023-05-14T08:01:51;15.30;99.90
12370;DHT22;6249;52.128;9.986;2023-05-14T08:05:12;15.50;99.90
12370;DHT22;6249;52.128;9.986;2023-05-14T08:08:32;15.70;99.90
12370;DHT22;6249;52.128;9.986;2023-05-14T08:11:58;15.90;99.90
12370;DHT22;6249;52.128;9.986;2023-05-14T08:15:21;16.30;99.90
12370;DHT22;6249;52.128;9.986;2023-05-14T08:18:43;17.60;99.90
12370;DHT22;6249;52.128;9.986;2023-05-14T08:22:04;16.60;99.90
12370;DHT22;6249;52.128;9.986;2023-05-14T08:25:27;16.80;99.90
12370;DHT22;6249;52.128;9.986;2023-05-14T08:28:48;17.00;99.90
12370;DHT22;6249;52.128;9.986;2023-05-14T08:32:13;17.10;99.90
12370;DHT22;6249;52.128;9.986;2023-05-14T08:35:36;17.40;99.90
12370;DHT22;6249;52.128;9.986;2023-05-14T08:38:59;17.60;99.90
12370;DHT22;6249;52.128;9.986;2023-05-14T08:42:23;17.90;99.90
12370;DHT22;6249;52.128;9.986;2023-05-14T08:45:44;18.40;99.90
12370;DHT22;6249;52.128;9.986;2023-05-14T08:52:44;19.30;99.90
12370;DHT22;6249;52.128;9.986;2023-05-14T08:56:08;19.50;99.90
12370;DHT22;6249;52.128;9.986;2023-05-14T08:59:29;19.30;99.90
12370;DHT22;6249;52.128;9.986;2023-05-14T09:02:53;19.20;99.90
12370;DHT22;6249;52.128;9.986;2023-05-14T09:06:16;19.50;99.90
12370;DHT22;6249;52.128;9.986;2023-05-14T09:09:38;19.50;99.90
12370;DHT22;6249;52.128;9.986;2023-05-14T09:12:59;19.60;99.60
12370;DHT22;6249;52.128;9.986;2023-05-14T09:16:22;19.70;99.90
12370;DHT22;6249;52.128;9.986;2023-05-14T09:19:45;20.00;99.90
12370;DHT22;6249;52.128;9.986;2023-05-14T09:23:10;20.20;99.90
12370;DHT22;6249;52.128;9.986;2023-05-14T09:26:36;20.20;99.90
12370;DHT22;6249;52.128;9.986;2023-05-14T09:30:07;20.50;99.90
12370;DHT22;6249;52.128;9.986;2023-05-14T09:33:28;20.90;99.90
12370;DHT22;6249;52.128;9.986;2023-05-14T09:36:49;21.30;99.90
12370;DHT22;6249;52.128;9.986;2023-05-14T09:40:12;21.70;99.90
12370;DHT22;6249;52.128;9.986;2023-05-14T09:43:35;22.20;98.70
12370;DHT22;6249;52.128;9.986;2023-05-14T09:46:55;22.60;95.20
12370;DHT22;6249;52.128;9.986;2023-05-14T09:50:18;22.80;96.90
12370;DHT22;6249;52.128;9.986;2023-05-14T09:53:39;23.30;94.90
12370;DHT22;6249;52.128;9.986;2023-05-14T09:57:00;23.60;94.50
12370;DHT22;6249;52.128;9.986;2023-05-14T10:00:24;24.10;94.60
12370;DHT22;6249;52.128;9.986;2023-05-14T10:03:47;24.50;93.90
12370;DHT22;6249;52.128;9.986;2023-05-14T10:07:08;24.90;91.80
12370;DHT22;6249;52.128;9.986;2023-05-14T10:10:29;25.40;91.30
12370;DHT22;6249;52.128;9.986;2023-05-14T10:14:07;25.50;82.70
12370;DHT22;6249;52.128;9.986;2023-05-14T10:17:30;25.40;91.10
12370;DHT22;6249;52.128;9.986;2023-05-14T10:21:05;25.60;90.40
12370;DHT22;6249;52.128;9.986;2023-05-14T10:24:27;25.90;89.30
12370;DHT22;6249;52.128;9.986;2023-05-14T10:27:48;26.10;89.10
12370;DHT22;6249;52.128;9.986;2023-05-14T10:31:09;26.60;87.10
12370;DHT22;6249;52.128;9.986;2023-05-14T10:34:36;27.00;84.20
12370;DHT22;6249;52.128;9.986;2023-05-14T10:37:58;27.20;80.30
12370;DHT22;6249;52.128;9.986;2023-05-14T10:41:21;27.50;80.60
12370;DHT22;6249;52.128;9.986;2023-05-14T10:44:56;27.80;78.10
12370;DHT22;6249;52.128;9.986;2023-05-14T10:48:18;28.30;74.20
12370;DHT22;6249;52.128;9.986;2023-05-14T10:51:39;28.60;72.00
12370;DHT22;6249;52.128;9.986;2023-05-14T10:55:04;28.50;71.40
12370;DHT22;6249;52.128;9.986;2023-05-14T10:58:30;29.00;70.30
12370;DHT22;6249;52.128;9.986;2023-05-14T11:01:56;29.30;66.00
12370;DHT22;6249;52.128;9.986;2023-05-14T11:05:16;29.50;67.20
12370;DHT22;6249;52.128;9.986;2023-05-14T11:08:37;30.10;66.50
12370;DHT22;6249;52.128;9.986;2023-05-14T11:11:58;30.40;63.90
12370;DHT22;6249;52.128;9.986;2023-05-14T11:15:23;30.70;63.60
12370;DHT22;6249;52.128;9.986;2023-05-14T11:18:44;30.50;62.00
12370;DHT22;6249;52.128;9.986;2023-05-14T11:22:04;30.50;60.40
12370;DHT22;6249;52.128;9.986;2023-05-14T11:25:26;29.80;61.60
12370;DHT22;6249;52.128;9.986;2023-05-14T11:28:49;29.20;65.30
12370;DHT22;6249;52.128;9.986;2023-05-14T11:32:09;29.40;62.70
12370;DHT22;6249;52.128;9.986;2023-05-14T11:35:30;29.50;61.30
12370;DHT22;6249;52.128;9.986;2023-05-14T11:38:51;29.60;61.50
12370;DHT22;6249;52.128;9.986;2023-05-14T11:42:15;29.50;62.10
12370;DHT22;6249;52.128;9.986;2023-05-14T11:45:37;29.90;60.20
12370;DHT22;6249;52.128;9.986;2023-05-14T11:49:03;30.60;57.50
12370;DHT22;6249;52.128;9.986;2023-05-14T11:52:29;30.10;58.30
12370;DHT22;6249;52.128;9.986;2023-05-14T11:55:52;30.80;60.10
12370;DHT22;6249;52.128;9.986;2023-05-14T11:59:13;31.70;57.60
12370;DHT22;6249;52.128;9.986;2023-05-14T12:02:41;32.40;54.70
12370;DHT22;6249;52.128;9.986;2023-05-14T12:06:05;32.70;52.90
12370;DHT22;6249;52.128;9.986;2023-05-14T12:09:28;33.00;50.90
12370;DHT22;6249;52.128;9.986;2023-05-14T12:12:51;32.60;49.90
12370;DHT22;6249;52.128;9.986;2023-05-14T12:16:12;31.80;50.30
12370;DHT22;6249;52.128;9.986;2023-05-14T12:19:39;31.30;50.20
12370;DHT22;6249;52.128;9.986;2023-05-14T12:23:02;31.30;50.30
12370;DHT22;6249;52.128;9.986;2023-05-14T12:26:27;31.40;51.00
12370;DHT22;6249;52.128;9.986;2023-05-14T12:30:02;32.50;47.10
12370;DHT22;6249;52.128;9.986;2023-05-14T12:33:22;33.40;47.40
12370;DHT22;6249;52.128;9.986;2023-05-14T12:36:43;34.10;44.90
12370;DHT22;6249;52.128;9.986;2023-05-14T12:40:04;34.40;44.40
12370;DHT22;6249;52.128;9.986;2023-05-14T12:43:31;34.60;41.70
12370;DHT22;6249;52.128;9.986;2023-05-14T12:46:51;34.60;39.90
12370;DHT22;6249;52.128;9.986;2023-05-14T12:50:12;33.90;35.50
12370;DHT22;6249;52.128;9.986;2023-05-14T12:53:36;33.50;36.50
12370;DHT22;6249;52.128;9.986;2023-05-14T12:56:57;33.60;37.50
12370;DHT22;6249;52.128;9.986;2023-05-14T13:00:18;32.90;43.70
12370;DHT22;6249;52.128;9.986;2023-05-14T13:03:38;33.20;44.60
12370;DHT22;6249;52.128;9.986;2023-05-14T13:06:59;33.80;43.40
12370;DHT22;6249;52.128;9.986;2023-05-14T13:10:20;34.20;43.10
12370;DHT22;6249;52.128;9.986;2023-05-14T13:13:40;33.70;42.30
12370;DHT22;6249;52.128;9.986;2023-05-14T13:17:06;33.20;43.30
12370;DHT22;6249;52.128;9.986;2023-05-14T13:20:29;32.30;43.80
12370;DHT22;6249;52.128;9.986;2023-05-14T13:23:50;31.90;44.10
12370;DHT22;6249;52.128;9.986;2023-05-14T13:27:13;31.70;45.90
12370;DHT22;6249;52.128;9.986;2023-05-14T13:30:36;31.70;45.50
12370;DHT22;6249;52.128;9.986;2023-05-14T13:33:57;32.30;45.70
12370;DHT22;6249;52.128;9.986;2023-05-14T13:37:18;33.00;43.50
12370;DHT22;6249;52.128;9.986;2023-05-14T13:40:44;32.60;43.50
12370;DHT22;6249;52.128;9.986;2023-05-14T13:44:04;32.90;43.00
12370;DHT22;6249;52.128;9.986;2023-05-14T13:47:25;31.60;43.90
12370;DHT22;6249;52.128;9.986;2023-05-14T13:50:49;30.70;45.40
12370;DHT22;6249;52.128;9.986;2023-05-14T13:54:12;29.90;45.90
12370;DHT22;6249;52.128;9.986;2023-05-14T13:57:32;29.00;45.30
12370;DHT22;6249;52.128;9.986;2023-05-14T14:00:53;28.50;48.00
12370;DHT22;6249;52.128;9.986;2023-05-14T14:04:16;27.90;48.60
12370;DHT22;6249;52.128;9.986;2023-05-14T14:07:37;27.60;49.20
12370;DHT22;6249;52.128;9.986;2023-05-14T14:11:00;27.40;49.20
12370;DHT22;6249;52.128;9.986;2023-05-14T14:14:20;27.30;51.70
12370;DHT22;6249;52.128;9.986;2023-05-14T14:17:41;27.00;52.20
12370;DHT22;6249;52.128;9.986;2023-05-14T14:21:02;26.50;53.40
12370;DHT22;6249;52.128;9.986;2023-05-14T14:24:24;26.00;52.70
12370;DHT22;6249;52.128;9.986;2023-05-14T14:27:47;25.70;55.10
12370;DHT22;6249;52.128;9.986;2023-05-14T14:31:08;25.40;53.40
12370;DHT22;6249;52.128;9.986;2023-05-14T14:34:31;25.20;52.00
12370;DHT22;6249;52.128;9.986;2023-05-14T14:37:54;24.90;51.50
12370;DHT22;6249;52.128;9.986;2023-05-14T14:41:15;24.60;54.50
12370;DHT22;6249;52.128;9.986;2023-05-14T14:44:35;24.40;56.50
12370;DHT22;6249;52.128;9.986;2023-05-14T14:51:42;24.40;54.90
12370;DHT22;6249;52.128;9.986;2023-05-14T14:55:03;24.40;55.00
12370;DHT22;6249;52.128;9.986;2023-05-14T14:58:23;24.30;55.80
12370;DHT22;6249;52.128;9.986;2023-05-14T15:01:47;24.30;56.50
12370;DHT22;6249;52.128;9.986;2023-05-14T15:05:08;24.30;57.10
12370;DHT22;6249;52.128;9.986;2023-05-14T15:08:31;24.40;58.90
12370;DHT22;6249;52.128;9.986;2023-05-14T15:11:52;24.30;58.60
12370;DHT22;6249;52.128;9.986;2023-05-14T15:15:15;24.30;61.80
12370;DHT22;6249;52.128;9.986;2023-05-14T15:18:35;24.60;62.80
12370;DHT22;6249;52.128;9.986;2023-05-14T15:21:58;25.10;62.60
12370;DHT22;6249;52.128;9.986;2023-05-14T15:25:20;25.20;61.10
12370;DHT22;6249;52.128;9.986;2023-05-14T15:28:41;25.10;62.00
12370;DHT22;6249;52.128;9.986;2023-05-14T15:32:02;24.80;60.80
12370;DHT22;6249;52.128;9.986;2023-05-14T15:35:22;24.40;59.80
12370;DHT22;6249;52.128;9.986;2023-05-14T15:38:46;24.20;62.10
12370;DHT22;6249;52.128;9.986;2023-05-14T15:42:09;24.00;60.80
12370;DHT22;6249;52.128;9.986;2023-05-14T15:45:31;23.70;65.90
12370;DHT22;6249;52.128;9.986;2023-05-14T15:48:54;23.70;64.50
12370;DHT22;6249;52.128;9.986;2023-05-14T15:52:15;23.70;64.90
12370;DHT22;6249;52.128;9.986;2023-05-14T15:55:35;23.50;66.70
12370;DHT22;6249;52.128;9.986;2023-05-14T15:58:56;23.60;66.90
12370;DHT22;6249;52.128;9.986;2023-05-14T16:02:19;23.50;65.90
12370;DHT22;6249;52.128;9.986;2023-05-14T16:05:39;23.40;65.40
12370;DHT22;6249;52.128;9.986;2023-05-14T16:09:04;23.30;67.30
12370;DHT22;6249;52.128;9.986;2023-05-14T16:12:24;23.10;68.40
12370;DHT22;6249;52.128;9.986;2023-05-14T16:15:45;23.00;68.90
12370;DHT22;6249;52.128;9.986;2023-05-14T16:19:06;22.90;66.30
12370;DHT22;6249;52.128;9.986;2023-05-14T16:22:27;22.80;68.20
12370;DHT22;6249;52.128;9.986;2023-05-14T16:25:48;22.20;68.50
12370;DHT22;6249;52.128;9.986;2023-05-14T16:29:11;22.40;69.20
12370;DHT22;6249;52.128;9.986;2023-05-14T16:32:32;22.30;70.00
12370;DHT22;6249;52.128;9.986;2023-05-14T16:35:53;22.20;68.30
12370;DHT22;6249;52.128;9.986;2023-05-14T16:39:15;22.30;69.40
12370;DHT22;6249;52.128;9.986;2023-05-14T16:42:37;22.20;70.70
12370;DHT22;6249;52.128;9.986;2023-05-14T16:45:59;22.20;70.40
12370;DHT22;6249;52.128;9.986;2023-05-14T16:49:20;22.20;70.30
12370;DHT22;6249;52.128;9.986;2023-05-14T16:52:41;22.10;72.20
12370;DHT22;6249;52.128;9.986;2023-05-14T16:56:02;21.90;72.30
12370;DHT22;6249;52.128;9.986;2023-05-14T16:59:25;21.80;72.90
12370;DHT22;6249;52.128;9.986;2023-05-14T17:02:48;21.70;75.00
12370;DHT22;6249;52.128;9.986;2023-05-14T17:06:10;21.60;74.00
12370;DHT22;6249;52.128;9.986;2023-05-14T17:09:33;21.50;74.10
12370;DHT22;6249;52.128;9.986;2023-05-14T17:12:55;21.50;74.30
12370;DHT22;6249;52.128;9.986;2023-05-14T17:16:16;21.40;74.90
12370;DHT22;6249;52.128;9.986;2023-05-14T17:19:37;21.30;76.10
12370;DHT22;6249;52.128;9.986;2023-05-14T17:22:57;21.10;76.60
12370;DHT22;6249;52.128;9.986;2023-05-14T17:26:18;21.00;77.90
12370;DHT22;6249;52.128;9.986;2023-05-14T17:29:38;20.90;77.60
12370;DHT22;6249;52.128;9.986;2023-05-14T17:32:59;20.70;79.10
12370;DHT22;6249;52.128;9.986;2023-05-14T17:36:19;20.60;80.50
12370;DHT22;6249;52.128;9.986;2023-05-14T17:39:42;20.50;83.10
12370;DHT22;6249;52.128;9.986;2023-05-14T17:43:06;20.30;84.20
12370;DHT22;6249;52.128;9.986;2023-05-14T17:46:27;20.00;85.10
12370;DHT22;6249;52.128;9.986;2023-05-14T17:49:48;19.90;88.60
12370;DHT22;6249;52.128;9.986;2023-05-14T17:53:10;19.90;87.90
12370;DHT22;6249;52.128;9.986;2023-05-14T17:56:33;20.00;88.90
12370;DHT22;6249;52.128;9.986;2023-05-14T17:59:53;19.90;88.60
12370;DHT22;6249;52.128;9.986;2023-05-14T18:03:14;19.80;88.60
12370;DHT22;6249;52.128;9.986;2023-05-14T18:06:37;19.70;88.90
12370;DHT22;6249;52.128;9.986;2023-05-14T18:09:57;19.50;90.40
12370;DHT22;6249;52.128;9.986;2023-05-14T18:13:23;19.40;91.60
12370;DHT22;6249;52.128;9.986;2023-05-14T18:16:44;19.30;93.40
12370;DHT22;6249;52.128;9.986;2023-05-14T18:20:05;19.20;94.20
12370;DHT22;6249;52.128;9.986;2023-05-14T18:23:26;19.10;94.80
12370;DHT22;6249;52.128;9.986;2023-05-14T18:26:47;19.00;94.90
12370;DHT22;6249;52.128;9.986;2023-05-14T18:30:09;18.90;95.70
12370;DHT22;6249;52.128;9.986;2023-05-14T18:33:35;18.80;96.40
12370;DHT22;6249;52.128;9.986;2023-05-14T18:36:58;18.80;96.50
12370;DHT22;6249;52.128;9.986;2023-05-14T18:40:18;18.70;97.30
12370;DHT22;6249;52.128;9.986;2023-05-14T18:43:39;18.60;97.70
12370;DHT22;6249;52.128;9.986;2023-05-14T18:47:02;18.50;98.50
12370;DHT22;6249;52.128;9.986;2023-05-14T18:50:25;18.40;98.90
12370;DHT22;6249;52.128;9.986;2023-05-14T18:53:50;18.20;99.00
12370;DHT22;6249;52.128;9.986;2023-05-14T18:57:11;18.10;99.60
12370;DHT22;6249;52.128;9.986;2023-05-14T19:00:32;18.10;99.90
12370;DHT22;6249;52.128;9.986;2023-05-14T19:03:55;17.90;99.90
12370;DHT22;6249;52.128;9.986;2023-05-14T19:07:21;17.70;99.90
12370;DHT22;6249;52.128;9.986;2023-05-14T19:10:41;17.50;99.90
12370;DHT22;6249;52.128;9.986;2023-05-14T19:14:02;17.40;99.90
12370;DHT22;6249;52.128;9.986;2023-05-14T19:17:23;17.40;99.90
12370;DHT22;6249;52.128;9.986;2023-05-14T19:20:43;17.30;99.90
12370;DHT22;6249;52.128;9.986;2023-05-14T19:24:08;17.20;99.90
12370;DHT22;6249;52.128;9.986;2023-05-14T19:27:28;17.00;99.90
12370;DHT22;6249;52.128;9.986;2023-05-14T19:30:49;17.00;99.90
12370;DHT22;6249;52.128;9.986;2023-05-14T19:34:10;16.80;99.90
12370;DHT22;6249;52.128;9.986;2023-05-14T19:37:33;16.70;99.90
12370;DHT22;6249;52.128;9.986;2023-05-14T19:40:54;16.60;99.90
12370;DHT22;6249;52.128;9.986;2023-05-14T19:44:16;16.60;99.90
12370;DHT22;6249;52.128;9.986;2023-05-14T19:47:36;16.50;99.90
12370;DHT22;6249;52.128;9.986;2023-05-14T19:50:57;16.40;99.90
12370;DHT22;6249;52.128;9.986;2023-05-14T19:54:18;16.20;99.90
12370;DHT22;6249;52.128;9.986;2023-05-14T19:57:38;16.10;99.90
12370;DHT22;6249;52.128;9.986;2023-05-14T20:00:59;16.00;99.90
12370;DHT22;6249;52.128;9.986;2023-05-14T20:04:20;15.90;99.90
12370;DHT22;6249;52.128;9.986;2023-05-14T20:07:45;15.70;99.90
12370;DHT22;6249;52.128;9.986;2023-05-14T20:11:10;15.70;99.90
12370;DHT22;6249;52.128;9.986;2023-05-14T20:14:33;15.70;99.90
12370;DHT22;6249;52.128;9.986;2023-05-14T20:17:53;15.50;99.90
12370;DHT22;6249;52.128;9.986;2023-05-14T20:21:16;15.40;99.90
12370;DHT22;6249;52.128;9.986;2023-05-14T20:24:37;15.40;99.90
12370;DHT22;6249;52.128;9.986;2023-05-14T20:28:00;15.30;99.90
12370;DHT22;6249;52.128;9.986;2023-05-14T20:31:20;15.20;99.90
12370;DHT22;6249;52.128;9.986;2023-05-14T20:34:41;15.20;99.90
12370;DHT22;6249;52.128;9.986;2023-05-14T20:38:02;15.00;99.90
12370;DHT22;6249;52.128;9.986;2023-05-14T20:41:23;14.90;99.90
12370;DHT22;6249;52.128;9.986;2023-05-14T20:44:43;14.90;99.90
12370;DHT22;6249;52.128;9.986;2023-05-14T20:48:04;14.80;99.90
12370;DHT22;6249;52.128;9.986;2023-05-14T20:51:29;14.70;99.90
12370;DHT22;6249;52.128;9.986;2023-05-14T20:54:50;14.70;99.90
12370;DHT22;6249;52.128;9.986;2023-05-14T20:58:13;14.60;99.90
12370;DHT22;6249;52.128;9.986;2023-05-14T21:01:35;14.50;99.90
12370;DHT22;6249;52.128;9.986;2023-05-14T21:04:56;14.40;99.90
12370;DHT22;6249;52.128;9.986;2023-05-14T21:08:21;14.30;99.90
12370;DHT22;6249;52.128;9.986;2023-05-14T21:11:42;14.30;99.90
12370;DHT22;6249;52.128;9.986;2023-05-14T21:15:03;14.10;99.90
12370;DHT22;6249;52.128;9.986;2023-05-14T21:18:24;14.10;99.90
12370;DHT22;6249;52.128;9.986;2023-05-14T21:21:46;14.10;99.90
12370;DHT22;6249;52.128;9.986;2023-05-14T21:25:09;14.00;99.90
12370;DHT22;6249;52.128;9.986;2023-05-14T21:31:54;13.70;99.90
12370;DHT22;6249;52.128;9.986;2023-05-14T21:35:15;13.70;99.90
12370;DHT22;6249;52.128;9.986;2023-05-14T21:38:35;13.70;99.90
12370;DHT22;6249;52.128;9.986;2023-05-14T21:41:56;13.60;99.90
12370;DHT22;6249;52.128;9.986;2023-05-14T21:45:19;13.50;99.90
12370;DHT22;6249;52.128;9.986;2023-05-14T21:48:39;13.30;99.90
12370;DHT22;6249;52.128;9.986;2023-05-14T21:52:05;13.20;99.90